sensor_id;sensor_type;location;lat;lon;timestamp;temperature;humidity
27823;DHT22;29019;47.630;8.262;2024-01-15T00:00:46;19.10;37.30
27823;DHT22;29019;47.630;8.262;2024-01-15T00:04:47;19.10;37.30
27823;DHT22;29019;47.630;8.262;2024-01-15T00:08:48;18.90;38.40
27823;DHT22;29019;47.630;8.262;2024-01-15T00:12:48;18.80;38.90
27823;DHT22;29019;47.630;8.262;2024-01-15T00:16:49;18.90;38.50
27823;DHT22;29019;47.630;8.262;2024-01-15T00:20:51;18.90;38.10
27823;DHT22;29019;47.630;8.262;2024-01-15T00:24:52;19.00;37.80
27823;DHT22;29019;47.630;8.262;2024-01-15T00:28:52;19.00;37.60
27823;DHT22;29019;47.630;8.262;2024-01-15T00:32:53;19.00;37.60
27823;DHT22;29019;47.630;8.262;2024-01-15T00:36:54;19.00;37.50
27823;DHT22;29019;47.630;8.262;2024-01-15T00:40:55;19.00;37.40
27823;DHT22;29019;47.630;8.262;2024-01-15T00:44:55;19.10;37.40
27823;DHT22;29019;47.630;8.262;2024-01-15T00:48:56;19.10;37.30
27823;DHT22;29019;47.630;8.262;2024-01-15T00:52:56;19.10;37.50
27823;DHT22;29019;47.630;8.262;2024-01-15T00:56:57;18.90;38.50
27823;DHT22;29019;47.630;8.262;2024-01-15T01:00:58;18.80;38.80
27823;DHT22;29019;47.630;8.262;2024-01-15T01:04:58;18.80;38.30
27823;DHT22;29019;47.630;8.262;2024-01-15T01:08:59;18.90;38.10
27823;DHT22;29019;47.630;8.262;2024-01-15T01:13:00;18.90;37.90
27823;DHT22;29019;47.630;8.262;2024-01-15T01:17:01;19.00;38.20
27823;DHT22;29019;47.630;8.262;2024-01-15T01:21:01;19.00;37.50
27823;DHT22;29019;47.630;8.262;2024-01-15T01:25:03;19.10;37.40
27823;DHT22;29019;47.630;8.262;2024-01-15T01:29:04;19.10;37.30
27823;DHT22;29019;47.630;8.262;2024-01-15T01:33:04;19.10;37.30
27823;DHT22;29019;47.630;8.262;2024-01-15T01:37:05;19.10;37.20
27823;DHT22;29019;47.630;8.262;2024-01-15T01:41:06;19.10;37.60
27823;DHT22;29019;47.630;8.262;2024-01-15T01:45:07;18.90;38.60
27823;DHT22;29019;47.630;8.262;2024-01-15T01:49:08;18.80;38.70
27823;DHT22;29019;47.630;8.262;2024-01-15T01:53:10;18.80;38.30
27823;DHT22;29019;47.630;8.262;2024-01-15T01:57:11;18.90;38.00
27823;DHT22;29019;47.630;8.262;2024-01-15T02:01:12;19.00;37.80
27823;DHT22;29019;47.630;8.262;2024-01-15T02:05:17;19.00;37.60
27823;DHT22;29019;47.630;8.262;2024-01-15T02:09:18;19.00;37.50
27823;DHT22;29019;47.630;8.262;2024-01-15T02:13:20;19.00;37.30
27823;DHT22;29019;47.630;8.262;2024-01-15T02:17:20;19.10;37.30
27823;DHT22;29019;47.630;8.262;2024-01-15T02:21:21;19.10;37.20
27823;DHT22;29019;47.630;8.262;2024-01-15T02:25:22;19.00;37.10
27823;DHT22;29019;47.630;8.262;2024-01-15T02:29:22;19.00;37.60
27823;DHT22;29019;47.630;8.262;2024-01-15T02:33:23;18.80;38.60
27823;DHT22;29019;47.630;8.262;2024-01-15T02:37:24;18.80;38.70
27823;DHT22;29019;47.630;8.262;2024-01-15T02:41:25;18.80;38.30
27823;DHT22;29019;47.630;8.262;2024-01-15T02:45:26;18.90;37.90
27823;DHT22;29019;47.630;8.262;2024-01-15T02:49:27;19.00;37.80
27823;DHT22;29019;47.630;8.262;2024-01-15T02:53:27;19.00;37.60
27823;DHT22;29019;47.630;8.262;2024-01-15T02:57:28;19.00;37.50
27823;DHT22;29019;47.630;8.262;2024-01-15T03:01:29;19.00;37.30
27823;DHT22;29019;47.630;8.262;2024-01-15T03:05:29;19.00;37.20
27823;DHT22;29019;47.630;8.262;2024-01-15T03:09:30;19.10;37.20
27823;DHT22;29019;47.630;8.262;2024-01-15T03:13:31;19.10;37.10
27823;DHT22;29019;47.630;8.262;2024-01-15T03:17:31;19.00;37.60
27823;DHT22;29019;47.630;8.262;2024-01-15T03:21:32;18.80;38.60
27823;DHT22;29019;47.630;8.262;2024-01-15T03:25:33;18.80;38.50
27823;DHT22;29019;47.630;8.262;2024-01-15T03:29:33;18.90;38.20
27823;DHT22;29019;47.630;8.262;2024-01-15T03:33:34;18.90;37.90
27823;DHT22;29019;47.630;8.262;2024-01-15T03:37:35;18.90;37.60
27823;DHT22;29019;47.630;8.262;2024-01-15T03:41:36;19.00;37.60
27823;DHT22;29019;47.630;8.262;2024-01-15T03:45:36;19.00;37.40
27823;DHT22;29019;47.630;8.262;2024-01-15T03:49:37;19.00;37.30
27823;DHT22;29019;47.630;8.262;2024-01-15T03:53:38;19.10;37.20
27823;DHT22;29019;47.630;8.262;2024-01-15T03:57:39;19.10;37.10
27823;DHT22;29019;47.630;8.262;2024-01-15T04:01:40;19.10;37.10
27823;DHT22;29019;47.630;8.262;2024-01-15T04:05:40;19.00;37.70
27823;DHT22;29019;47.630;8.262;2024-01-15T04:09:41;18.80;38.70
27823;DHT22;29019;47.630;8.262;2024-01-15T04:13:42;18.80;38.50
27823;DHT22;29019;47.630;8.262;2024-01-15T04:17:42;18.80;38.20
27823;DHT22;29019;47.630;8.262;2024-01-15T04:21:43;18.90;37.90
27823;DHT22;29019;47.630;8.262;2024-01-15T04:25:44;18.90;37.60
27823;DHT22;29019;47.630;8.262;2024-01-15T04:29:46;19.00;37.50
27823;DHT22;29019;47.630;8.262;2024-01-15T04:33:47;19.00;37.40
27823;DHT22;29019;47.630;8.262;2024-01-15T04:37:47;19.00;37.80
27823;DHT22;29019;47.630;8.262;2024-01-15T04:41:48;19.10;37.20
27823;DHT22;29019;47.630;8.262;2024-01-15T04:45:49;19.10;37.10
27823;DHT22;29019;47.630;8.262;2024-01-15T04:49:49;19.10;37.00
27823;DHT22;29019;47.630;8.262;2024-01-15T04:53:50;19.00;37.80
27823;DHT22;29019;47.630;8.262;2024-01-15T04:57:51;18.80;38.60
27823;DHT22;29019;47.630;8.262;2024-01-15T05:01:51;18.80;38.40
27823;DHT22;29019;47.630;8.262;2024-01-15T05:05:52;18.90;38.00
27823;DHT22;29019;47.630;8.262;2024-01-15T05:09:53;18.90;38.30
27823;DHT22;29019;47.630;8.262;2024-01-15T05:13:53;19.00;37.60
27823;DHT22;29019;47.630;8.262;2024-01-15T05:17:54;19.00;37.50
27823;DHT22;29019;47.630;8.262;2024-01-15T05:21:55;19.00;37.20
27823;DHT22;29019;47.630;8.262;2024-01-15T05:25:55;19.10;37.10
27823;DHT22;29019;47.630;8.262;2024-01-15T05:29:56;19.10;37.00
27823;DHT22;29019;47.630;8.262;2024-01-15T05:33:57;19.10;37.00
27823;DHT22;29019;47.630;8.262;2024-01-15T05:37:58;19.10;36.90
27823;DHT22;29019;47.630;8.262;2024-01-15T05:41:58;19.00;37.80
27823;DHT22;29019;47.630;8.262;2024-01-15T05:46:00;18.80;38.50
27823;DHT22;29019;47.630;8.262;2024-01-15T05:50:01;18.80;38.20
27823;DHT22;29019;47.630;8.262;2024-01-15T05:54:02;18.90;37.90
27823;DHT22;29019;47.630;8.262;2024-01-15T05:58:03;19.00;37.60
27823;DHT22;29019;47.630;8.262;2024-01-15T06:02:04;19.00;37.40
27823;DHT22;29019;47.630;8.262;2024-01-15T06:06:05;19.10;37.30
27823;DHT22;29019;47.630;8.262;2024-01-15T06:10:06;19.00;37.10
27823;DHT22;29019;47.630;8.262;2024-01-15T06:14:07;19.00;37.10
27823;DHT22;29019;47.630;8.262;2024-01-15T06:18:07;19.00;37.00
27823;DHT22;29019;47.630;8.262;2024-01-15T06:22:08;19.10;37.00
27823;DHT22;29019;47.630;8.262;2024-01-15T06:26:11;19.10;37.00
27823;DHT22;29019;47.630;8.262;2024-01-15T06:30:12;18.90;37.90
27823;DHT22;29019;47.630;8.262;2024-01-15T06:34:14;18.70;38.60
27823;DHT22;29019;47.630;8.262;2024-01-15T06:38:15;18.80;38.30
27823;DHT22;29019;47.630;8.262;2024-01-15T06:42:16;18.90;38.50
27823;DHT22;29019;47.630;8.262;2024-01-15T06:46:20;19.00;37.60
27823;DHT22;29019;47.630;8.262;2024-01-15T06:50:21;19.00;37.40
27823;DHT22;29019;47.630;8.262;2024-01-15T06:54:22;19.10;37.20
27823;DHT22;29019;47.630;8.262;2024-01-15T06:58:24;19.10;37.10
27823;DHT22;29019;47.630;8.262;2024-01-15T07:02:24;19.10;37.00
27823;DHT22;29019;47.630;8.262;2024-01-15T07:06:25;19.10;36.90
27823;DHT22;29019;47.630;8.262;2024-01-15T07:10:26;19.10;36.90
27823;DHT22;29019;47.630;8.262;2024-01-15T07:14:26;19.10;36.90
27823;DHT22;29019;47.630;8.262;2024-01-15T07:18:27;18.90;38.00
27823;DHT22;29019;47.630;8.262;2024-01-15T07:22:28;18.70;38.50
27823;DHT22;29019;47.630;8.262;2024-01-15T07:26:30;18.80;38.20
27823;DHT22;29019;47.630;8.262;2024-01-15T07:30:30;18.90;37.80
27823;DHT22;29019;47.630;8.262;2024-01-15T07:34:31;19.00;37.50
27823;DHT22;29019;47.630;8.262;2024-01-15T07:38:32;19.00;37.30
27823;DHT22;29019;47.630;8.262;2024-01-15T07:42:33;19.00;37.10
27823;DHT22;29019;47.630;8.262;2024-01-15T07:46:34;19.10;37.10
27823;DHT22;29019;47.630;8.262;2024-01-15T07:50:35;19.10;37.00
27823;DHT22;29019;47.630;8.262;2024-01-15T07:54:36;19.10;36.90
27823;DHT22;29019;47.630;8.262;2024-01-15T07:58:36;19.10;36.80
27823;DHT22;29019;47.630;8.262;2024-01-15T08:02:37;19.10;36.80
27823;DHT22;29019;47.630;8.262;2024-01-15T08:06:38;18.90;37.90
27823;DHT22;29019;47.630;8.262;2024-01-15T08:10:39;18.70;38.50
27823;DHT22;29019;47.630;8.262;2024-01-15T08:14:40;18.80;38.10
27823;DHT22;29019;47.630;8.262;2024-01-15T08:18:41;18.90;37.70
27823;DHT22;29019;47.630;8.262;2024-01-15T08:22:44;19.00;37.50
27823;DHT22;29019;47.630;8.262;2024-01-15T08:26:45;19.00;37.30
27823;DHT22;29019;47.630;8.262;2024-01-15T08:30:45;19.10;37.20
27823;DHT22;29019;47.630;8.262;2024-01-15T08:34:47;19.10;37.00
27823;DHT22;29019;47.630;8.262;2024-01-15T08:38:49;19.10;36.90
27823;DHT22;29019;47.630;8.262;2024-01-15T08:42:50;19.10;36.80
27823;DHT22;29019;47.630;8.262;2024-01-15T08:46:50;19.10;36.80
27823;DHT22;29019;47.630;8.262;2024-01-15T08:50:51;19.10;36.90
27823;DHT22;29019;47.630;8.262;2024-01-15T08:54:52;18.90;38.00
27823;DHT22;29019;47.630;8.262;2024-01-15T08:58:52;18.80;38.50
27823;DHT22;29019;47.630;8.262;2024-01-15T09:02:53;18.80;38.00
27823;DHT22;29019;47.630;8.262;2024-01-15T09:06:54;18.90;37.60
27823;DHT22;29019;47.630;8.262;2024-01-15T09:10:54;19.00;37.50
27823;DHT22;29019;47.630;8.262;2024-01-15T09:14:55;19.00;37.30
27823;DHT22;29019;47.630;8.262;2024-01-15T09:18:56;19.10;37.20
27823;DHT22;29019;47.630;8.262;2024-01-15T09:22:57;19.00;37.00
27823;DHT22;29019;47.630;8.262;2024-01-15T09:26:58;19.10;36.90
27823;DHT22;29019;47.630;8.262;2024-01-15T09:30:59;19.10;36.90
27823;DHT22;29019;47.630;8.262;2024-01-15T09:35:00;19.10;36.80
27823;DHT22;29019;47.630;8.262;2024-01-15T09:39:00;19.10;37.00
27823;DHT22;29019;47.630;8.262;2024-01-15T09:43:02;18.80;38.10
27823;DHT22;29019;47.630;8.262;2024-01-15T09:47:04;18.70;39.00
27823;DHT22;29019;47.630;8.262;2024-01-15T09:51:06;18.80;37.90
27823;DHT22;29019;47.630;8.262;2024-01-15T09:55:09;18.90;37.60
27823;DHT22;29019;47.630;8.262;2024-01-15T09:59:10;19.00;37.40
27823;DHT22;29019;47.630;8.262;2024-01-15T10:03:10;19.00;37.20
27823;DHT22;29019;47.630;8.262;2024-01-15T10:07:15;19.00;37.00
27823;DHT22;29019;47.630;8.262;2024-01-15T10:11:19;19.10;37.00
27823;DHT22;29019;47.630;8.262;2024-01-15T10:15:28;19.10;36.90
27823;DHT22;29019;47.630;8.262;2024-01-15T10:19:31;19.10;36.80
27823;DHT22;29019;47.630;8.262;2024-01-15T10:23:34;19.10;36.70
27823;DHT22;29019;47.630;8.262;2024-01-15T10:27:36;19.00;37.20
27823;DHT22;29019;47.630;8.262;2024-01-15T10:31:37;18.80;38.20
27823;DHT22;29019;47.630;8.262;2024-01-15T10:35:38;18.70;38.30
27823;DHT22;29019;47.630;8.262;2024-01-15T10:39:39;18.90;37.90
27823;DHT22;29019;47.630;8.262;2024-01-15T10:43:39;18.90;37.60
27823;DHT22;29019;47.630;8.262;2024-01-15T10:47:42;19.00;37.90
27823;DHT22;29019;47.630;8.262;2024-01-15T10:51:43;19.00;37.20
27823;DHT22;29019;47.630;8.262;2024-01-15T10:55:46;19.00;37.10
27823;DHT22;29019;47.630;8.262;2024-01-15T10:59:48;19.10;37.00
27823;DHT22;29019;47.630;8.262;2024-01-15T11:03:49;19.10;37.10
27823;DHT22;29019;47.630;8.262;2024-01-15T11:07:50;19.00;36.80
27823;DHT22;29019;47.630;8.262;2024-01-15T11:12:12;19.10;36.70
27823;DHT22;29019;47.630;8.262;2024-01-15T11:16:14;19.00;37.50
27823;DHT22;29019;47.630;8.262;2024-01-15T11:20:18;18.80;38.20
27823;DHT22;29019;47.630;8.262;2024-01-15T11:24:41;18.80;38.20
27823;DHT22;29019;47.630;8.262;2024-01-15T11:28:51;18.90;37.80
27823;DHT22;29019;47.630;8.262;2024-01-15T11:32:52;18.90;37.50
27823;DHT22;29019;47.630;8.262;2024-01-15T11:40:53;19.00;37.10
27823;DHT22;29019;47.630;8.262;2024-01-15T11:44:53;19.10;37.00
27823;DHT22;29019;47.630;8.262;2024-01-15T11:49:03;19.10;36.90
27823;DHT22;29019;47.630;8.262;2024-01-15T11:57:40;19.10;36.80
27823;DHT22;29019;47.630;8.262;2024-01-15T12:01:41;19.10;36.70
27823;DHT22;29019;47.630;8.262;2024-01-15T12:05:42;18.90;37.90
27823;DHT22;29019;47.630;8.262;2024-01-15T12:09:44;18.70;38.40
27823;DHT22;29019;47.630;8.262;2024-01-15T12:13:44;18.80;38.00
27823;DHT22;29019;47.630;8.262;2024-01-15T12:17:45;18.90;37.60
27823;DHT22;29019;47.630;8.262;2024-01-15T12:21:47;19.00;37.40
27823;DHT22;29019;47.630;8.262;2024-01-15T12:25:49;19.00;37.20
27823;DHT22;29019;47.630;8.262;2024-01-15T12:29:49;19.00;37.00
27823;DHT22;29019;47.630;8.262;2024-01-15T12:33:50;19.10;36.90
27823;DHT22;29019;47.630;8.262;2024-01-15T12:37:51;19.00;36.90
27823;DHT22;29019;47.630;8.262;2024-01-15T12:41:51;19.10;36.80
27823;DHT22;29019;47.630;8.262;2024-01-15T12:45:52;19.10;36.80
27823;DHT22;29019;47.630;8.262;2024-01-15T12:49:53;19.00;36.80
27823;DHT22;29019;47.630;8.262;2024-01-15T12:53:54;18.90;38.00
27823;DHT22;29019;47.630;8.262;2024-01-15T12:57:55;18.70;38.30
27823;DHT22;29019;47.630;8.262;2024-01-15T13:01:56;18.80;37.90
27823;DHT22;29019;47.630;8.262;2024-01-15T13:05:57;18.90;37.60
27823;DHT22;29019;47.630;8.262;2024-01-15T13:09:57;18.90;37.30
27823;DHT22;29019;47.630;8.262;2024-01-15T13:13:58;19.00;37.20
27823;DHT22;29019;47.630;8.262;2024-01-15T13:17:59;19.00;37.00
27823;DHT22;29019;47.630;8.262;2024-01-15T13:22:00;19.00;36.90
27823;DHT22;29019;47.630;8.262;2024-01-15T13:26:00;19.10;36.90
27823;DHT22;29019;47.630;8.262;2024-01-15T13:30:01;19.10;36.80
27823;DHT22;29019;47.630;8.262;2024-01-15T13:34:02;19.10;36.70
27823;DHT22;29019;47.630;8.262;2024-01-15T13:38:03;19.10;36.80
27823;DHT22;29019;47.630;8.262;2024-01-15T13:42:04;18.90;38.00
27823;DHT22;29019;47.630;8.262;2024-01-15T13:46:05;18.70;38.30
27823;DHT22;29019;47.630;8.262;2024-01-15T13:50:07;18.90;37.90
27823;DHT22;29019;47.630;8.262;2024-01-15T13:54:07;18.90;37.60
27823;DHT22;29019;47.630;8.262;2024-01-15T13:58:08;19.00;37.30
27823;DHT22;29019;47.630;8.262;2024-01-15T14:02:09;19.00;37.10
27823;DHT22;29019;47.630;8.262;2024-01-15T14:06:10;19.00;37.00
27823;DHT22;29019;47.630;8.262;2024-01-15T14:10:11;19.10;36.90
27823;DHT22;29019;47.630;8.262;2024-01-15T14:14:11;19.00;37.00
27823;DHT22;29019;47.630;8.262;2024-01-15T14:18:12;19.10;36.70
27823;DHT22;29019;47.630;8.262;2024-01-15T14:22:13;19.10;36.70
27823;DHT22;29019;47.630;8.262;2024-01-15T14:26:13;19.10;37.00
27823;DHT22;29019;47.630;8.262;2024-01-15T14:30:14;18.90;38.00
27823;DHT22;29019;47.630;8.262;2024-01-15T14:34:16;18.80;38.20
27823;DHT22;29019;47.630;8.262;2024-01-15T14:38:18;18.90;37.80
27823;DHT22;29019;47.630;8.262;2024-01-15T14:42:20;18.90;37.50
27823;DHT22;29019;47.630;8.262;2024-01-15T14:46:20;19.00;37.30
27823;DHT22;29019;47.630;8.262;2024-01-15T14:50:21;19.00;37.10
27823;DHT22;29019;47.630;8.262;2024-01-15T14:54:22;19.10;37.00
27823;DHT22;29019;47.630;8.262;2024-01-15T14:58:22;19.10;36.90
27823;DHT22;29019;47.630;8.262;2024-01-15T15:02:24;19.10;36.70
27823;DHT22;29019;47.630;8.262;2024-01-15T15:06:28;19.10;36.60
27823;DHT22;29019;47.630;8.262;2024-01-15T15:10:29;19.10;36.60
27823;DHT22;29019;47.630;8.262;2024-01-15T15:14:31;19.10;37.00
27823;DHT22;29019;47.630;8.262;2024-01-15T15:18:32;18.80;38.00
27823;DHT22;29019;47.630;8.262;2024-01-15T15:22:32;18.80;38.20
27823;DHT22;29019;47.630;8.262;2024-01-15T15:26:33;18.90;37.80
27823;DHT22;29019;47.630;8.262;2024-01-15T15:30:34;18.90;37.40
27823;DHT22;29019;47.630;8.262;2024-01-15T15:34:34;19.00;37.20
27823;DHT22;29019;47.630;8.262;2024-01-15T15:38:35;19.00;37.00
27823;DHT22;29019;47.630;8.262;2024-01-15T15:42:36;19.10;37.00
27823;DHT22;29019;47.630;8.262;2024-01-15T15:46:37;19.10;36.80
27823;DHT22;29019;47.630;8.262;2024-01-15T15:50:38;19.10;36.70
27823;DHT22;29019;47.630;8.262;2024-01-15T15:54:39;19.10;36.70
27823;DHT22;29019;47.630;8.262;2024-01-15T15:58:39;19.10;36.70
27823;DHT22;29019;47.630;8.262;2024-01-15T16:02:40;19.00;37.10
27823;DHT22;29019;47.630;8.262;2024-01-15T16:06:41;18.80;38.00
27823;DHT22;29019;47.630;8.262;2024-01-15T16:10:43;18.80;38.10
27823;DHT22;29019;47.630;8.262;2024-01-15T16:14:44;18.90;37.70
27823;DHT22;29019;47.630;8.262;2024-01-15T16:18:44;18.90;37.40
27823;DHT22;29019;47.630;8.262;2024-01-15T16:22:46;19.00;37.20
27823;DHT22;29019;47.630;8.262;2024-01-15T16:26:46;19.00;37.00
27823;DHT22;29019;47.630;8.262;2024-01-15T16:30:47;19.00;36.90
27823;DHT22;29019;47.630;8.262;2024-01-15T16:34:48;19.00;36.80
27823;DHT22;29019;47.630;8.262;2024-01-15T16:38:48;19.00;36.80
27823;DHT22;29019;47.630;8.262;2024-01-15T16:42:49;19.00;36.70
27823;DHT22;29019;47.630;8.262;2024-01-15T16:46:50;19.00;36.60
27823;DHT22;29019;47.630;8.262;2024-01-15T16:50:51;18.90;37.30
27823;DHT22;29019;47.630;8.262;2024-01-15T16:54:53;18.80;38.20
27823;DHT22;29019;47.630;8.262;2024-01-15T16:58:54;18.80;38.20
27823;DHT22;29019;47.630;8.262;2024-01-15T17:02:55;18.80;37.70
27823;DHT22;29019;47.630;8.262;2024-01-15T17:06:55;18.90;37.40
27823;DHT22;29019;47.630;8.262;2024-01-15T17:10:56;19.00;37.20
27823;DHT22;29019;47.630;8.262;2024-01-15T17:14:57;19.00;37.00
27823;DHT22;29019;47.630;8.262;2024-01-15T17:18:58;19.10;36.90
27823;DHT22;29019;47.630;8.262;2024-01-15T17:22:58;19.10;36.80
27823;DHT22;29019;47.630;8.262;2024-01-15T17:26:59;19.10;36.70
27823;DHT22;29019;47.630;8.262;2024-01-15T17:31:00;19.10;36.60
27823;DHT22;29019;47.630;8.262;2024-01-15T17:35:00;19.10;36.50
27823;DHT22;29019;47.630;8.262;2024-01-15T17:39:01;19.10;37.30
27823;DHT22;29019;47.630;8.262;2024-01-15T17:43:02;18.80;38.10
27823;DHT22;29019;47.630;8.262;2024-01-15T17:47:03;18.80;38.00
27823;DHT22;29019;47.630;8.262;2024-01-15T17:51:04;18.90;37.60
27823;DHT22;29019;47.630;8.262;2024-01-15T17:55:05;18.90;37.30
27823;DHT22;29019;47.630;8.262;2024-01-15T17:59:06;19.00;37.10
27823;DHT22;29019;47.630;8.262;2024-01-15T18:03:07;19.00;37.00
27823;DHT22;29019;47.630;8.262;2024-01-15T18:07:07;19.00;36.80
27823;DHT22;29019;47.630;8.262;2024-01-15T18:11:15;19.10;36.70
27823;DHT22;29019;47.630;8.262;2024-01-15T18:15:17;19.10;36.60
27823;DHT22;29019;47.630;8.262;2024-01-15T18:19:17;19.10;36.60
27823;DHT22;29019;47.630;8.262;2024-01-15T18:23:19;19.10;36.50
27823;DHT22;29019;47.630;8.262;2024-01-15T18:27:19;18.90;37.50
27823;DHT22;29019;47.630;8.262;2024-01-15T18:31:20;18.70;38.20
27823;DHT22;29019;47.630;8.262;2024-01-15T18:35:21;18.80;38.00
27823;DHT22;29019;47.630;8.262;2024-01-15T18:39:24;18.80;37.60
27823;DHT22;29019;47.630;8.262;2024-01-15T18:43:24;18.90;37.30
27823;DHT22;29019;47.630;8.262;2024-01-15T18:47:25;19.00;37.20
27823;DHT22;29019;47.630;8.262;2024-01-15T18:51:26;18.90;37.00
27823;DHT22;29019;47.630;8.262;2024-01-15T18:55:26;19.00;37.00
27823;DHT22;29019;47.630;8.262;2024-01-15T18:59:27;19.00;36.80
27823;DHT22;29019;47.630;8.262;2024-01-15T19:03:31;19.00;36.70
27823;DHT22;29019;47.630;8.262;2024-01-15T19:07:31;19.10;36.60
27823;DHT22;29019;47.630;8.262;2024-01-15T19:11:33;19.10;36.50
27823;DHT22;29019;47.630;8.262;2024-01-15T19:15:34;19.00;37.60
27823;DHT22;29019;47.630;8.262;2024-01-15T19:19:34;18.80;38.10
27823;DHT22;29019;47.630;8.262;2024-01-15T19:23:37;18.90;37.80
27823;DHT22;29019;47.630;8.262;2024-01-15T19:27:38;18.90;37.50
27823;DHT22;29019;47.630;8.262;2024-01-15T19:31:43;19.00;37.20
27823;DHT22;29019;47.630;8.262;2024-01-15T19:35:44;19.00;37.00
27823;DHT22;29019;47.630;8.262;2024-01-15T19:39:45;19.00;36.90
27823;DHT22;29019;47.630;8.262;2024-01-15T19:43:46;19.10;36.80
27823;DHT22;29019;47.630;8.262;2024-01-15T19:47:47;19.10;36.70
27823;DHT22;29019;47.630;8.262;2024-01-15T19:51:48;19.10;36.60
27823;DHT22;29019;47.630;8.262;2024-01-15T19:55:48;19.10;36.60
27823;DHT22;29019;47.630;8.262;2024-01-15T19:59:49;19.10;36.50
27823;DHT22;29019;47.630;8.262;2024-01-15T20:03:53;18.90;37.60
27823;DHT22;29019;47.630;8.262;2024-01-15T20:07:54;18.70;38.20
27823;DHT22;29019;47.630;8.262;2024-01-15T20:11:55;18.80;37.80
27823;DHT22;29019;47.630;8.262;2024-01-15T20:15:55;18.90;37.40
27823;DHT22;29019;47.630;8.262;2024-01-15T20:19:56;19.00;37.20
27823;DHT22;29019;47.630;8.262;2024-01-15T20:23:57;19.00;37.00
27823;DHT22;29019;47.630;8.262;2024-01-15T20:27:58;19.10;36.90
27823;DHT22;29019;47.630;8.262;2024-01-15T20:31:58;19.10;36.80
27823;DHT22;29019;47.630;8.262;2024-01-15T20:36:00;19.10;36.70
27823;DHT22;29019;47.630;8.262;2024-01-15T20:40:01;19.10;36.60
27823;DHT22;29019;47.630;8.262;2024-01-15T20:44:04;19.10;36.50
27823;DHT22;29019;47.630;8.262;2024-01-15T20:48:04;19.10;36.60
27823;DHT22;29019;47.630;8.262;2024-01-15T20:52:06;18.90;37.70
27823;DHT22;29019;47.630;8.262;2024-01-15T20:56:07;18.70;38.10
27823;DHT22;29019;47.630;8.262;2024-01-15T21:00:08;18.80;37.70
27823;DHT22;29019;47.630;8.262;2024-01-15T21:04:09;18.90;37.40
27823;DHT22;29019;47.630;8.262;2024-01-15T21:08:12;19.00;37.10
27823;DHT22;29019;47.630;8.262;2024-01-15T21:12:12;19.00;37.00
27823;DHT22;29019;47.630;8.262;2024-01-15T21:16:13;19.10;36.90
27823;DHT22;29019;47.630;8.262;2024-01-15T21:20:14;19.10;36.70
27823;DHT22;29019;47.630;8.262;2024-01-15T21:24:15;19.10;36.60
27823;DHT22;29019;47.630;8.262;2024-01-15T21:28:16;19.10;36.60
27823;DHT22;29019;47.630;8.262;2024-01-15T21:32:17;19.10;36.50
27823;DHT22;29019;47.630;8.262;2024-01-15T21:36:18;19.10;36.70
27823;DHT22;29019;47.630;8.262;2024-01-15T21:40:21;18.90;37.80
27823;DHT22;29019;47.630;8.262;2024-01-15T21:44:21;18.70;38.10
27823;DHT22;29019;47.630;8.262;2024-01-15T21:48:22;18.80;37.70
27823;DHT22;29019;47.630;8.262;2024-01-15T21:52:23;18.70;37.50
27823;DHT22;29019;47.630;8.262;2024-01-15T21:56:24;18.90;37.60
27823;DHT22;29019;47.630;8.262;2024-01-15T22:00:25;19.00;37.20
27823;DHT22;29019;47.630;8.262;2024-01-15T22:04:25;19.10;37.10
27823;DHT22;29019;47.630;8.262;2024-01-15T22:08:26;19.10;37.00
27823;DHT22;29019;47.630;8.262;2024-01-15T22:12:27;19.20;37.00
27823;DHT22;29019;47.630;8.262;2024-01-15T22:16:27;19.20;36.90
27823;DHT22;29019;47.630;8.262;2024-01-15T22:20:28;19.20;36.90
27823;DHT22;29019;47.630;8.262;2024-01-15T22:24:29;19.20;37.30
27823;DHT22;29019;47.630;8.262;2024-01-15T22:28:30;19.00;38.30
27823;DHT22;29019;47.630;8.262;2024-01-15T22:32:31;18.90;38.30
27823;DHT22;29019;47.630;8.262;2024-01-15T22:36:31;19.00;38.10
27823;DHT22;29019;47.630;8.262;2024-01-15T22:40:32;19.10;37.90
27823;DHT22;29019;47.630;8.262;2024-01-15T22:44:33;19.10;37.80
27823;DHT22;29019;47.630;8.262;2024-01-15T22:48:33;19.20;37.60
27823;DHT22;29019;47.630;8.262;2024-01-15T22:52:34;19.20;37.50
27823;DHT22;29019;47.630;8.262;2024-01-15T22:56:35;19.20;37.40
27823;DHT22;29019;47.630;8.262;2024-01-15T23:00:35;19.20;37.30
27823;DHT22;29019;47.630;8.262;2024-01-15T23:04:37;19.20;37.30
27823;DHT22;29019;47.630;8.262;2024-01-15T23:08:39;19.20;37.20
27823;DHT22;29019;47.630;8.262;2024-01-15T23:12:39;19.20;37.70
27823;DHT22;29019;47.630;8.262;2024-01-15T23:16:40;19.00;38.50
27823;DHT22;29019;47.630;8.262;2024-01-15T23:20:41;19.00;38.70
27823;DHT22;29019;47.630;8.262;2024-01-15T23:24:42;19.00;38.40
27823;DHT22;29019;47.630;8.262;2024-01-15T23:28:42;19.10;38.10
27823;DHT22;29019;47.630;8.262;2024-01-15T23:32:43;19.10;38.00
27823;DHT22;29019;47.630;8.262;2024-01-15T23:36:44;19.10;37.90
27823;DHT22;29019;47.630;8.262;2024-01-15T23:40:45;19.10;37.70
27823;DHT22;29019;47.630;8.262;2024-01-15T23:44:46;19.10;37.70
27823;DHT22;29019;47.630;8.262;2024-01-15T23:48:47;19.20;37.60
27823;DHT22;29019;47.630;8.262;2024-01-15T23:52:47;19.20;37.60
27823;DHT22;29019;47.630;8.262;2024-01-15T23:56:48;19.20;37.50
